Alexandria, Ohio
Current Conditions -  °F | °C
As of 11:54 PM on Sunday 23 Nov 2014 (Local Time) from KVTA Reporting Station
Overcast Overcast  
Wind Chill: 58°   Ceiling: 5000
Heat Index: 58°   Visibility: 10mi
Dew Point: 52°   Wind: 16mph
Humidity: 81%   Direction: 160°SSE
Pressure: 29.35"   Gusts: 26mph
Location:  40.09°N, 82.61°W
Report Text: KVTA 240454Z AUTO 16014G23KT 10SM FEW022 OVC050 14/11 A2935 RMK AO2 SLP936 T01440111 401780039
Loading
Personal Weather Stations






























Interactive Weather Map New forecast layout! Learn more

10-Day Weather Forecast

Advertisements
Track Severe Weather on mobile